createdAt,value
2019-02-02T00:01:08.578Z,27.80
2019-02-02T00:03:37.907Z,23.40
2019-02-02T00:06:09.698Z,20.13
2019-02-02T00:08:39.905Z,19.77
2019-02-02T00:11:09.350Z,21.07
2019-02-02T00:13:38.658Z,17.30
2019-02-02T00:16:08.290Z,19.10
2019-02-02T00:18:37.549Z,20.93
2019-02-02T00:21:07.197Z,22.23
2019-02-02T00:23:36.439Z,20.30
2019-02-02T00:26:05.628Z,20.10
2019-02-02T00:28:34.721Z,23.23
2019-02-02T00:31:04.066Z,24.10
2019-02-02T00:33:33.214Z,23.63
2019-02-02T00:36:02.462Z,19.97
2019-02-02T00:38:34.108Z,21.63
2019-02-02T00:41:06.055Z,23.67
2019-02-02T00:43:38.382Z,26.20
2019-02-02T00:46:06.799Z,19.23
2019-02-02T00:48:35.994Z,20.80
2019-02-02T00:51:05.625Z,22.70
2019-02-02T00:53:34.816Z,20.63
2019-02-02T00:56:15.683Z,20.53
2019-02-02T00:58:44.899Z,21.37
2019-02-02T01:01:14.021Z,18.40
2019-02-02T01:03:44.166Z,17.07
2019-02-02T01:06:13.843Z,20.20
2019-02-02T01:08:43.098Z,16.57
2019-02-02T01:11:13.941Z,17.97
2019-02-02T01:13:43.216Z,20.67
2019-02-02T01:16:12.355Z,20.33
2019-02-02T01:18:41.601Z,16.83
2019-02-02T01:21:10.826Z,18.80
2019-02-02T01:23:43.978Z,30.83
2019-02-02T01:26:13.082Z,17.60
2019-02-02T01:28:42.626Z,20.10
2019-02-02T01:31:12.044Z,22.33
2019-02-02T01:33:41.916Z,20.87
2019-02-02T01:36:12.004Z,18.63
2019-02-02T01:38:41.912Z,21.30
2019-02-02T01:41:11.087Z,17.17
2019-02-02T01:43:41.744Z,20.23
2019-02-02T01:46:11.029Z,20.40
2019-02-02T01:48:40.867Z,19.87
2019-02-02T01:51:11.186Z,18.33
2019-02-02T01:53:40.309Z,19.07
2019-02-02T01:56:09.507Z,16.93
2019-02-02T01:58:38.694Z,16.77
2019-02-02T02:01:07.994Z,20.40
2019-02-02T02:03:37.917Z,19.10
2019-02-02T02:06:07.294Z,21.70
2019-02-02T02:08:36.500Z,20.30
2019-02-02T02:11:05.721Z,17.63
2019-02-02T02:13:34.894Z,21.43
2019-02-02T02:16:05.803Z,17.50
2019-02-02T02:18:35.973Z,21.20
2019-02-02T02:21:05.286Z,17.67
2019-02-02T02:23:34.534Z,20.70
2019-02-02T02:26:03.666Z,18.20
2019-02-02T02:28:32.841Z,18.10
2019-02-02T02:31:03.893Z,22.73
2019-02-02T02:33:33.159Z,20.43
2019-02-02T02:36:02.751Z,19.20
2019-02-02T02:38:32.014Z,18.63
2019-02-02T02:41:01.183Z,17.63
2019-02-02T02:43:30.433Z,20.93
2019-02-02T02:45:59.626Z,20.53
2019-02-02T02:48:28.822Z,22.10
2019-02-02T02:50:57.914Z,23.50
2019-02-02T02:53:27.127Z,19.40
2019-02-02T02:56:01.513Z,18.97
2019-02-02T02:58:41.191Z,23.63
2019-02-02T03:01:02.315Z,20.70
2019-02-02T03:03:31.476Z,24.70
2019-02-02T03:06:00.786Z,20.40
2019-02-02T03:08:30.027Z,19.77
2019-02-02T03:10:59.360Z,24.93
2019-02-02T03:13:29.225Z,21.37
2019-02-02T03:15:59.897Z,24.00
2019-02-02T03:18:34.437Z,24.70
2019-02-02T03:21:03.775Z,22.63
2019-02-02T03:23:32.942Z,25.23
2019-02-02T03:26:02.269Z,22.10
2019-02-02T03:28:31.351Z,20.17
2019-02-02T03:31:00.483Z,23.90
2019-02-02T03:33:29.680Z,21.03
2019-02-02T03:35:58.880Z,26.93
2019-02-02T03:38:28.070Z,23.87
2019-02-02T03:40:57.960Z,26.37
2019-02-02T03:43:27.057Z,23.27
2019-02-02T03:45:56.289Z,29.27
2019-02-02T03:48:25.516Z,23.27
2019-02-02T03:50:54.741Z,25.57
2019-02-02T03:53:24.598Z,24.40
2019-02-02T03:55:53.834Z,20.73
2019-02-02T03:58:22.991Z,26.17
2019-02-02T04:00:52.175Z,27.23
2019-02-02T04:03:26.123Z,23.67
2019-02-02T04:05:55.402Z,27.33
2019-02-02T04:08:24.644Z,23.00
2019-02-02T04:10:53.904Z,24.60
2019-02-02T04:13:23.606Z,22.87
2019-02-02T04:15:52.687Z,24.70
2019-02-02T04:18:21.871Z,27.20
2019-02-02T04:20:50.991Z,26.27
2019-02-02T04:23:20.399Z,25.77
2019-02-02T04:25:57.177Z,27.57
2019-02-02T04:28:26.421Z,25.27
2019-02-02T04:30:56.953Z,26.03
2019-02-02T04:33:27.311Z,24.53
2019-02-02T04:35:56.757Z,26.47
2019-02-02T04:38:25.873Z,26.60
2019-02-02T04:40:55.059Z,22.37
2019-02-02T04:43:24.207Z,24.93
2019-02-02T04:45:53.954Z,23.70
2019-02-02T04:48:32.637Z,24.43
2019-02-02T04:51:03.540Z,25.17
2019-02-02T04:53:32.772Z,25.73
2019-02-02T04:56:02.251Z,27.90
2019-02-02T04:58:31.361Z,26.97
2019-02-02T05:01:01.596Z,29.90
2019-02-02T05:03:30.680Z,28.97
2019-02-02T05:05:59.901Z,24.77
2019-02-02T05:08:29.350Z,29.60
2019-02-02T05:10:59.140Z,26.27
2019-02-02T05:13:28.454Z,29.33
2019-02-02T05:15:57.633Z,27.37
2019-02-02T05:18:27.065Z,26.43
2019-02-02T05:20:56.248Z,25.57
2019-02-02T05:23:25.790Z,27.17
2019-02-02T05:25:54.841Z,26.50
2019-02-02T05:28:23.949Z,27.17
2019-02-02T05:30:53.283Z,26.63
2019-02-02T05:33:27.946Z,26.00
2019-02-02T05:35:57.104Z,29.23
2019-02-02T05:38:26.350Z,29.50
2019-02-02T05:40:55.466Z,26.97
2019-02-02T05:43:24.653Z,26.57
2019-02-02T05:45:53.867Z,34.40
2019-02-02T05:48:23.332Z,30.13
2019-02-02T05:50:52.825Z,34.30
2019-02-02T05:53:23.533Z,28.67
2019-02-02T05:55:54.414Z,25.43
2019-02-02T05:58:23.626Z,29.00
2019-02-02T06:00:53.226Z,25.30
2019-02-02T06:03:24.929Z,29.80
2019-02-02T06:05:53.586Z,28.90
2019-02-02T06:08:27.236Z,25.77
2019-02-02T06:10:56.869Z,30.00
2019-02-02T06:13:28.964Z,29.63
2019-02-02T06:15:58.421Z,33.03
2019-02-02T06:18:30.046Z,34.13
2019-02-02T06:20:59.758Z,28.20
2019-02-02T06:23:28.971Z,26.70
2019-02-02T06:25:58.217Z,33.80
2019-02-02T06:28:30.164Z,33.50
2019-02-02T06:31:04.802Z,30.43
2019-02-02T06:33:40.073Z,29.80
2019-02-02T06:36:05.262Z,31.77
2019-02-02T06:38:35.122Z,31.40
2019-02-02T06:41:05.434Z,30.23
2019-02-02T06:43:42.260Z,33.83
2019-02-02T06:46:13.723Z,32.27
2019-02-02T06:48:42.832Z,36.90
2019-02-02T06:51:13.659Z,35.03
2019-02-02T06:53:44.624Z,33.73
2019-02-02T06:56:14.532Z,32.90
2019-02-02T06:58:43.677Z,34.20
2019-02-02T07:01:12.910Z,31.90
2019-02-02T07:03:42.058Z,31.33
2019-02-02T07:06:11.298Z,26.03
2019-02-02T07:08:40.791Z,31.90
2019-02-02T07:11:12.052Z,27.90
2019-02-02T07:13:42.519Z,30.63
2019-02-02T07:16:11.759Z,29.50
2019-02-02T07:18:40.990Z,30.37
2019-02-02T07:21:12.651Z,28.90
2019-02-02T07:23:41.648Z,34.23
2019-02-02T07:26:10.932Z,36.97
2019-02-02T07:28:40.187Z,34.73
2019-02-02T07:31:10.062Z,33.70
2019-02-02T07:33:41.887Z,30.57
2019-02-02T07:36:11.311Z,28.70
2019-02-02T07:38:40.717Z,28.43
2019-02-02T07:41:19.683Z,26.47
2019-02-02T07:43:49.663Z,36.90
2019-02-02T07:46:19.477Z,29.00
2019-02-02T07:48:49.023Z,36.10
2019-02-02T07:51:18.594Z,29.87
2019-02-02T07:53:47.920Z,36.20
2019-02-02T07:56:17.234Z,41.40
2019-02-02T07:58:48.121Z,34.53
2019-02-02T08:01:19.188Z,34.07
2019-02-02T08:03:49.962Z,28.70
2019-02-02T08:06:20.779Z,34.87
2019-02-02T08:08:51.327Z,32.43
2019-02-02T08:11:20.760Z,36.87
2019-02-02T08:13:50.142Z,33.83
2019-02-02T08:16:28.179Z,34.87
2019-02-02T08:19:00.571Z,29.57
2019-02-02T08:21:29.975Z,35.10
2019-02-02T08:23:59.527Z,32.17
2019-02-02T08:26:28.977Z,36.37
2019-02-02T08:28:58.895Z,34.73
2019-02-02T08:31:28.494Z,35.23
2019-02-02T08:33:58.394Z,33.20
2019-02-02T08:36:28.981Z,30.33
2019-02-02T08:39:00.237Z,35.73
2019-02-02T08:41:29.638Z,32.93
2019-02-02T08:44:00.280Z,30.27
2019-02-02T08:46:29.508Z,29.87
2019-02-02T08:48:59.170Z,25.97
2019-02-02T08:51:28.884Z,31.77
2019-02-02T08:53:58.306Z,32.10
2019-02-02T08:56:34.118Z,33.10
2019-02-02T08:59:20.037Z,39.20
2019-02-02T09:01:52.007Z,39.33
2019-02-02T09:04:24.900Z,34.97
2019-02-02T09:07:05.254Z,31.83
2019-02-02T09:09:36.711Z,28.57
2019-02-02T09:12:10.947Z,34.87
2019-02-02T09:14:40.993Z,28.27
2019-02-02T09:17:11.895Z,35.23
2019-02-02T09:19:53.863Z,33.60
2019-02-02T09:22:25.402Z,32.00
2019-02-02T09:24:55.735Z,37.03
2019-02-02T09:27:27.565Z,34.30
2019-02-02T09:29:58.714Z,33.27
2019-02-02T09:32:30.504Z,32.53
2019-02-02T09:35:06.536Z,32.40
2019-02-02T09:37:32.381Z,37.07
2019-02-02T09:40:04.502Z,31.50
2019-02-02T09:42:39.829Z,30.03
2019-02-02T09:45:15.469Z,33.17
2019-02-02T09:47:47.466Z,32.77
2019-02-02T09:50:20.791Z,32.63
2019-02-02T09:52:53.505Z,29.23
2019-02-02T09:55:26.048Z,33.20
2019-02-02T09:58:00.599Z,36.43
2019-02-02T10:00:37.322Z,41.17
2019-02-02T10:03:08.312Z,71.10
2019-02-02T10:05:37.582Z,42.70
2019-02-02T10:08:08.796Z,36.53
2019-02-02T10:10:52.056Z,36.13
2019-02-02T10:13:21.645Z,35.57
2019-02-02T10:15:52.558Z,35.90
2019-02-02T10:18:22.977Z,37.47
2019-02-02T10:21:03.281Z,41.87
2019-02-02T10:23:25.323Z,33.67
2019-02-02T10:25:54.714Z,34.23
2019-02-02T10:28:24.012Z,35.77
2019-02-02T10:30:53.432Z,37.83
2019-02-02T10:33:30.518Z,35.57
2019-02-02T10:36:00.625Z,35.30
2019-02-02T10:38:30.444Z,37.17
2019-02-02T10:40:59.811Z,35.30
2019-02-02T10:43:29.141Z,41.80
2019-02-02T10:45:58.369Z,36.30
2019-02-02T10:48:27.555Z,35.60
2019-02-02T10:50:57.132Z,40.13
2019-02-02T10:53:26.344Z,39.17
2019-02-02T10:55:57.040Z,40.90
2019-02-02T10:58:26.534Z,35.03
2019-02-02T11:00:56.034Z,40.67
2019-02-02T11:03:26.743Z,39.23
2019-02-02T11:06:01.337Z,35.20
2019-02-02T11:08:33.985Z,43.50
2019-02-02T11:11:03.091Z,38.10
2019-02-02T11:13:32.563Z,40.93
2019-02-02T11:16:02.312Z,46.63
2019-02-02T11:18:31.911Z,37.00
2019-02-02T11:21:01.245Z,48.03
2019-02-02T11:23:32.989Z,40.27
2019-02-02T11:26:02.553Z,43.67
2019-02-02T11:28:33.038Z,46.03
2019-02-02T11:31:02.790Z,41.43
2019-02-02T11:33:36.330Z,42.60
2019-02-02T11:36:05.547Z,38.97
2019-02-02T11:38:35.156Z,49.87
2019-02-02T11:41:04.553Z,35.20
2019-02-02T11:43:33.764Z,43.23
2019-02-02T11:46:04.551Z,38.80
2019-02-02T11:48:34.822Z,42.67
2019-02-02T11:51:03.997Z,41.07
2019-02-02T11:53:33.281Z,45.23
2019-02-02T11:56:31.452Z,48.43
2019-02-02T11:59:02.254Z,39.07
2019-02-02T12:01:31.560Z,41.07
2019-02-02T12:04:01.078Z,45.33
2019-02-02T12:06:30.799Z,43.57
2019-02-02T12:09:01.992Z,40.13
2019-02-02T12:11:31.280Z,43.37
2019-02-02T12:14:01.750Z,36.63
2019-02-02T12:16:32.495Z,36.63
2019-02-02T12:19:12.730Z,33.97
2019-02-02T12:21:44.845Z,38.83
2019-02-02T12:24:16.319Z,35.80
2019-02-02T12:26:56.191Z,35.03
2019-02-02T12:29:25.601Z,34.50
2019-02-02T12:31:57.058Z,34.17
2019-02-02T12:34:28.757Z,34.97
2019-02-02T12:36:59.343Z,37.10
2019-02-02T12:39:29.925Z,34.00
2019-02-02T12:41:59.207Z,31.80
2019-02-02T12:44:28.592Z,34.30
2019-02-02T12:46:58.014Z,37.37
2019-02-02T12:49:28.263Z,33.97
2019-02-02T12:51:57.536Z,36.83
2019-02-02T12:54:27.022Z,37.17
2019-02-02T12:56:56.260Z,33.03
2019-02-02T12:59:31.194Z,36.30
2019-02-02T13:01:56.412Z,35.07
2019-02-02T13:04:26.204Z,35.40
2019-02-02T13:06:55.681Z,36.57
2019-02-02T13:09:24.951Z,34.67
2019-02-02T13:11:56.049Z,33.33
2019-02-02T13:14:27.965Z,35.63
2019-02-02T13:16:59.835Z,36.50
2019-02-02T13:19:38.263Z,39.17
2019-02-02T13:21:58.797Z,35.30
2019-02-02T13:24:28.173Z,38.03
2019-02-02T13:26:57.465Z,39.20
2019-02-02T13:29:34.800Z,37.50
2019-02-02T13:32:04.258Z,36.80
2019-02-02T13:34:36.492Z,40.10
2019-02-02T13:37:07.080Z,34.40
2019-02-02T13:39:37.698Z,33.07
2019-02-02T13:42:06.897Z,35.97
2019-02-02T13:44:36.153Z,35.03
2019-02-02T13:47:05.951Z,37.80
2019-02-02T13:49:35.428Z,37.57
2019-02-02T13:52:07.784Z,42.30
2019-02-02T13:54:38.698Z,43.43
2019-02-02T13:57:09.186Z,38.97
2019-02-02T13:59:39.041Z,41.53
2019-02-02T14:02:10.988Z,43.77
2019-02-02T14:04:40.062Z,38.00
2019-02-02T14:07:17.803Z,36.67
2019-02-02T14:09:40.185Z,43.63
2019-02-02T14:12:10.628Z,41.87
2019-02-02T14:14:40.009Z,41.67
2019-02-02T14:17:10.164Z,38.07
2019-02-02T14:19:39.578Z,40.03
2019-02-02T14:22:08.995Z,37.30
2019-02-02T14:24:38.300Z,41.63
2019-02-02T14:27:09.812Z,37.10
2019-02-02T14:29:40.067Z,36.33
2019-02-02T14:32:09.992Z,38.57
2019-02-02T14:34:42.899Z,39.53
2019-02-02T14:37:12.789Z,37.27
2019-02-02T14:39:43.195Z,38.93
2019-02-02T14:42:12.836Z,38.57
2019-02-02T14:44:42.107Z,37.50
2019-02-02T14:47:11.341Z,32.37
2019-02-02T14:49:46.291Z,36.30
2019-02-02T14:52:17.586Z,40.50
2019-02-02T14:54:46.858Z,37.40
2019-02-02T14:57:16.106Z,37.43
2019-02-02T14:59:47.755Z,33.73
2019-02-02T15:02:17.173Z,38.50
2019-02-02T15:04:48.282Z,38.87
2019-02-02T15:07:24.251Z,35.93
2019-02-02T15:09:50.588Z,35.23
2019-02-02T15:12:19.863Z,34.77
2019-02-02T15:14:50.326Z,36.87
2019-02-02T15:17:19.633Z,39.00
2019-02-02T15:19:51.040Z,37.57
2019-02-02T15:22:20.263Z,34.30
2019-02-02T15:24:49.849Z,32.47
2019-02-02T15:27:22.405Z,39.23
2019-02-02T15:29:54.578Z,36.27
2019-02-02T15:32:23.368Z,37.37
2019-02-02T15:34:55.357Z,39.07
2019-02-02T15:37:25.658Z,37.80
2019-02-02T15:40:00.888Z,34.80
2019-02-02T15:42:30.338Z,36.43
2019-02-02T15:44:59.677Z,38.33
2019-02-02T15:47:28.805Z,38.70
2019-02-02T15:49:58.066Z,36.07
2019-02-02T15:52:27.391Z,42.30
2019-02-02T15:54:56.710Z,41.00
2019-02-02T15:57:27.663Z,43.47
2019-02-02T15:59:56.845Z,40.53
2019-02-02T16:02:26.041Z,40.90
2019-02-02T16:04:55.264Z,46.10
2019-02-02T16:07:24.545Z,42.77
2019-02-02T16:09:53.763Z,42.80
2019-02-02T16:12:23.070Z,44.37
2019-02-02T16:14:59.667Z,43.77
2019-02-02T16:17:29.363Z,45.27
2019-02-02T16:20:00.519Z,46.37
2019-02-02T16:22:30.932Z,52.43
2019-02-02T16:25:04.911Z,45.33
2019-02-02T16:27:34.068Z,49.13
2019-02-02T16:30:06.844Z,39.10
2019-02-02T16:32:40.231Z,49.77
2019-02-02T16:35:15.177Z,44.10
2019-02-02T16:37:58.516Z,47.97
2019-02-02T16:40:26.389Z,44.27
2019-02-02T16:42:56.156Z,45.70
2019-02-02T16:45:30.840Z,48.53
2019-02-02T16:48:03.245Z,42.17
2019-02-02T16:50:32.889Z,45.77
2019-02-02T16:53:02.356Z,46.90
2019-02-02T16:55:34.416Z,48.63
2019-02-02T16:58:05.270Z,39.70
2019-02-02T17:00:35.553Z,45.37
2019-02-02T17:03:07.385Z,49.33
2019-02-02T17:05:37.353Z,39.47
2019-02-02T17:08:07.090Z,46.53
2019-02-02T17:10:37.226Z,45.13
2019-02-02T17:13:11.062Z,47.50
2019-02-02T17:15:42.952Z,48.63
2019-02-02T17:18:12.194Z,46.13
2019-02-02T17:20:44.687Z,46.80
2019-02-02T17:23:15.564Z,48.03
2019-02-02T17:25:44.656Z,49.40
2019-02-02T17:28:15.988Z,52.07
2019-02-02T17:30:46.350Z,48.43
2019-02-02T17:33:18.308Z,45.27
2019-02-02T17:35:47.711Z,46.53
2019-02-02T17:38:16.986Z,48.80
2019-02-02T17:40:46.404Z,52.77
2019-02-02T17:43:18.233Z,49.20
2019-02-02T17:45:47.573Z,47.53
2019-02-02T17:48:18.065Z,47.97
2019-02-02T17:50:47.218Z,56.60
2019-02-02T17:53:16.428Z,52.27
2019-02-02T17:55:45.672Z,49.83
2019-02-02T17:58:15.852Z,50.00
2019-02-02T18:00:49.826Z,45.50
2019-02-02T18:03:20.091Z,47.33
2019-02-02T18:05:49.329Z,45.53
2019-02-02T18:08:18.517Z,53.20
2019-02-02T18:10:47.819Z,48.77
2019-02-02T18:13:18.288Z,49.43
2019-02-02T18:15:51.778Z,51.70
2019-02-02T18:18:21.439Z,51.57
2019-02-02T18:20:50.801Z,48.07
2019-02-02T18:23:19.996Z,54.17
2019-02-02T18:25:49.200Z,48.17
2019-02-02T18:28:18.411Z,49.80
2019-02-02T18:30:47.677Z,46.87
2019-02-02T18:33:23.868Z,52.23
2019-02-02T18:35:54.610Z,48.13
2019-02-02T18:38:23.982Z,40.17
2019-02-02T18:40:57.230Z,52.07
2019-02-02T18:43:23.943Z,46.47
2019-02-02T18:45:53.456Z,52.30
2019-02-02T18:48:24.976Z,51.10
2019-02-02T18:50:54.179Z,47.93
2019-02-02T18:53:26.642Z,43.33
2019-02-02T18:55:58.247Z,47.00
2019-02-02T18:58:27.385Z,45.60
2019-02-02T19:00:57.943Z,49.37
2019-02-02T19:03:29.565Z,56.73
2019-02-02T19:05:59.995Z,44.90
2019-02-02T19:08:31.174Z,48.67
2019-02-02T19:11:03.643Z,47.83
2019-02-02T19:13:34.125Z,42.60
2019-02-02T19:16:03.466Z,46.07
2019-02-02T19:18:32.750Z,46.17
2019-02-02T19:21:01.891Z,46.83
2019-02-02T19:23:32.662Z,51.30
2019-02-02T19:26:02.048Z,44.37
2019-02-02T19:28:39.387Z,44.00
2019-02-02T19:31:02.126Z,51.50
2019-02-02T19:33:31.327Z,38.93
2019-02-02T19:36:00.476Z,40.70
2019-02-02T19:38:30.112Z,43.27
2019-02-02T19:41:01.928Z,43.77
2019-02-02T19:43:45.063Z,45.90
2019-02-02T19:46:14.952Z,40.80
2019-02-02T19:48:44.177Z,45.70
2019-02-02T19:51:13.621Z,48.50
2019-02-02T19:53:42.763Z,52.20
2019-02-02T19:56:15.237Z,49.23
2019-02-02T19:58:44.866Z,48.37
2019-02-02T20:01:17.689Z,55.67
2019-02-02T20:03:51.194Z,48.60
2019-02-02T20:06:21.725Z,47.20
2019-02-02T20:08:50.703Z,47.73
2019-02-02T20:11:23.875Z,41.03
2019-02-02T20:13:55.055Z,48.73
2019-02-02T20:16:24.288Z,44.23
2019-02-02T20:18:58.408Z,48.17
2019-02-02T20:21:34.435Z,45.23
2019-02-02T20:24:05.985Z,44.50
2019-02-02T20:26:35.243Z,45.07
2019-02-02T20:29:04.383Z,47.60
2019-02-02T20:31:33.488Z,48.17
2019-02-02T20:34:06.444Z,49.57
2019-02-02T20:36:38.041Z,55.27
2019-02-02T20:39:12.898Z,52.70
2019-02-02T20:41:39.497Z,42.53
2019-02-02T20:44:14.397Z,41.07
2019-02-02T20:46:43.912Z,43.57
2019-02-02T20:49:13.376Z,39.67
2019-02-02T20:51:42.906Z,40.07
2019-02-02T20:54:12.177Z,38.73
2019-02-02T20:56:41.919Z,45.87
2019-02-02T20:59:11.150Z,41.70
2019-02-02T21:01:41.738Z,41.20
2019-02-02T21:04:12.836Z,42.37
2019-02-02T21:06:47.111Z,46.13
2019-02-02T21:09:16.292Z,43.70
2019-02-02T21:11:56.381Z,40.87
2019-02-02T21:14:16.251Z,42.23
2019-02-02T21:16:46.329Z,43.00
2019-02-02T21:19:18.173Z,44.93
2019-02-02T21:21:47.496Z,39.77
2019-02-02T21:24:17.804Z,44.70
2019-02-02T21:26:52.375Z,41.47
2019-02-02T21:29:21.480Z,40.93
2019-02-02T21:31:50.688Z,42.73
2019-02-02T21:34:19.821Z,43.83
2019-02-02T21:36:49.085Z,42.40
2019-02-02T21:39:19.891Z,44.17
2019-02-02T21:41:54.025Z,42.00
2019-02-02T21:44:23.987Z,43.57
2019-02-02T21:46:54.142Z,43.07
2019-02-02T21:49:23.330Z,45.27
2019-02-02T21:51:54.126Z,46.53
2019-02-02T21:54:32.587Z,51.30
2019-02-02T21:57:03.132Z,41.27
2019-02-02T21:59:32.204Z,47.77
2019-02-02T22:02:01.396Z,48.90
2019-02-02T22:05:02.404Z,45.77
2019-02-02T22:07:03.611Z,46.07
2019-02-02T22:09:34.788Z,44.60
2019-02-02T22:12:05.165Z,51.57
2019-02-02T22:14:41.525Z,48.53
2019-02-02T22:17:13.092Z,45.03
2019-02-02T22:19:45.676Z,46.97
2019-02-02T22:22:14.996Z,45.50
2019-02-02T22:24:45.437Z,48.53
2019-02-02T22:27:14.933Z,51.83
2019-02-02T22:29:44.171Z,43.70
2019-02-02T22:32:13.750Z,45.30
2019-02-02T22:34:43.067Z,45.43
2019-02-02T22:37:12.319Z,47.43
2019-02-02T22:39:43.827Z,45.03
2019-02-02T22:42:13.871Z,47.83
2019-02-02T22:44:43.157Z,43.50
2019-02-02T22:47:16.832Z,45.60
2019-02-02T22:49:46.170Z,44.07
2019-02-02T22:52:16.046Z,45.17
2019-02-02T22:54:49.875Z,44.90
2019-02-02T22:57:18.893Z,47.23
2019-02-02T22:59:48.156Z,38.27
2019-02-02T23:02:27.602Z,44.23
2019-02-02T23:05:00.226Z,45.50
2019-02-02T23:07:36.384Z,45.47
2019-02-02T23:10:26.465Z,48.60
2019-02-02T23:12:59.066Z,45.33
2019-02-02T23:15:48.055Z,47.90
2019-02-02T23:18:17.748Z,47.57
2019-02-02T23:20:47.031Z,40.90
2019-02-02T23:23:16.240Z,39.37
2019-02-02T23:25:50.014Z,41.17
2019-02-02T23:28:19.207Z,38.53
2019-02-02T23:30:48.287Z,38.90
2019-02-02T23:33:17.511Z,36.87
2019-02-02T23:35:46.706Z,41.43
2019-02-02T23:38:16.246Z,38.53
2019-02-02T23:40:45.479Z,39.50
2019-02-02T23:43:15.479Z,42.07
2019-02-02T23:45:46.388Z,38.40
2019-02-02T23:48:22.728Z,37.77
2019-02-02T23:50:51.877Z,37.00
2019-02-02T23:53:22.220Z,37.03
2019-02-02T23:55:51.447Z,36.00
2019-02-02T23:58:20.856Z,33.47
